Accueil
METAR-TAF:

METAR-TAF

Aéroports :

Messine, Italie

latitude: 38-12N, longitude: 015-33E, altitude: 59 m

Observation

Le bulletin a été fait il y a 1 heure et 9 minutes, à 19:55 UTC
Vent 3 kt de nord-ouest
Température 19°C
Humidité 83%
Pression 1014 hPa
Visibilité 10 km ou plus
Quelques nuages à une hauteur de 3000 ft, Cumulus congestus.

METAR: LICF 311955Z 31003KT 9999 FEW030TCU 19/16 Q1014 RMK SCT QUK / QUL / VIS MAR 14 KM MON INVIS NC VIS MIN 9999

Heure: 23:04 (21:04 UTC)


TAF: absent

Observations et prévisions météorologiques de plus de 4000 aéroports (messages METAR et TAF).

Les stations disponibles sont représentées par des disques jaunes et rouges sur la carte.

Passer la souris dessus pour voir le nom de la station.

Cliquer dessus pour voir les observations et prévisions météorologiques.

Pour changer de carte: cliquez sur les boutons verts avec une croix noire pour zoomer, sur le bouton vert avec un tiret pour effectuer un zoom arrière, ou sur les flèches vertes pour les cartes adjacentes.


METAR-TAF: